This is the latest recevied weather packets stored in our database for station/object K7FRY. If no packets are shown the sender has not sent any weather packets the latest 1 day(s).
| Time | Temp. | Humidity | Pressure | Rain* | Wind** | Luminosity | Snow |
|---|---|---|---|---|---|---|---|
| 1777998652 | 17.78° C | 77% | 1014 hPa | 0 mm | 0 m/s | 260 W/m² | - |
| 1777998350 | 17.78° C | 80% | 1014.1 hPa | 0 mm | 0.45 m/s, 78° | 300 W/m² | - |
| 1777998047 | 17.78° C | 80% | 1014.1 hPa | 0 mm | 0.45 m/s, 199° | 404 W/m² | - |
| 1777997744 | 17.22° C | 79% | 1014.2 hPa | 0 mm | 0.45 m/s, 155° | 221 W/m² | - |
| 1777997441 | 16.67° C | 82% | 1014.1 hPa | 0 mm | 0 m/s | 137 W/m² | - |
| 1777997139 | 17.22° C | 80% | 1014 hPa | 0 mm | 0 m/s | 62 W/m² | - |
| 1777996836 | 17.78° C | 78% | 1013.9 hPa | 0 mm | 0.45 m/s, 164° | 178 W/m² | - |
| 1777996539 | 17.22° C | 81% | 1013.9 hPa | 0 mm | 0 m/s | 251 W/m² | - |
| 1777996228 | 17.22° C | 83% | 1014.2 hPa | 0 mm | 0 m/s | 185 W/m² | - |
| 1777995925 | 16.67° C | 84% | 1014 hPa | 0 mm | 0.45 m/s, 194° | 132 W/m² | - |
| 1777995621 | 16.67° C | 84% | 1014 hPa | 0 mm | 0 m/s | 146 W/m² | - |
| 1777995319 | 16.67° C | 85% | 1013.8 hPa | 0 mm | 0.45 m/s, 195° | 180 W/m² | - |
| 1777995015 | 16.11° C | 86% | 1013.9 hPa | 0 mm | 0.45 m/s, 194° | 170 W/m² | - |
| 1777994712 | 16.11° C | 89% | 1014.1 hPa | 0 mm | 0.45 m/s, 209° | 158 W/m² | - |
| 1777994408 | 15.56° C | 90% | 1014.1 hPa | 0 mm | 0.45 m/s, 195° | 106 W/m² | - |
| 1777994103 | 15.56° C | 92% | 1014.1 hPa | 0 mm | 0.89 m/s, 230° | 110 W/m² | - |
| 1777993801 | 15° C | 93% | 1013.9 hPa | 0 mm | 0 m/s | 127 W/m² | - |
| 1777993497 | 15° C | 95% | 1014 hPa | 0 mm | 0.89 m/s, 209° | 125 W/m² | - |
| 1777993197 | 14.44° C | 97% | 1013.9 hPa | 0 mm | 0.45 m/s, 191° | 138 W/m² | - |
| 1777992895 | 14.44° C | 97% | 1013.8 hPa | 0 mm | 0 m/s | 85 W/m² | - |
| 1777992593 | 14.44° C | 98% | 1013.8 hPa | 0 mm | 0.45 m/s, 175° | 81 W/m² | - |
| 1777992291 | 14.44° C | 98% | 1014 hPa | 0 mm | 0.89 m/s, 190° | 75 W/m² | - |
| 1777991988 | 14.44° C | 98% | 1014 hPa | 0 mm | 0.45 m/s, 181° | 85 W/m² | - |
| 1777991685 | 14.44° C | 98% | 1013.8 hPa | 0 mm | 0 m/s | 121 W/m² | - |
| 1777991382 | 14.44° C | 99% | 1013.7 hPa | 0 mm | 0.45 m/s, 190° | 272 W/m² | - |
* Rain latest hour (hover to see other rain measurements)
** Current wind speed in m/s (hover to see current wind gust speed)